createdAt,value
2018-10-06T16:19:59.062Z,3.25
2018-10-06T16:22:27.609Z,31.15
2018-10-06T16:24:56.174Z,13.22
2018-10-06T16:27:24.806Z,8.60
2018-10-06T16:29:55.285Z,12.90
2018-10-06T16:32:23.974Z,3.67
2018-10-06T16:34:52.534Z,5.47
2018-10-06T16:37:21.489Z,4.12
2018-10-06T16:39:50.152Z,3.92
2018-10-06T16:42:19.094Z,4.20
2018-10-06T16:44:47.788Z,4.92
2018-10-06T16:47:16.457Z,3.58
2018-10-06T16:49:45.756Z,4.20
2018-10-06T16:52:14.507Z,3.65
2018-10-06T16:54:44.517Z,3.85
2018-10-06T16:57:13.042Z,4.45
2018-10-06T16:59:42.238Z,3.67
2018-10-06T17:02:11.190Z,3.30
2018-10-06T17:04:39.670Z,2.77
2018-10-06T17:07:08.856Z,3.67
2018-10-06T17:09:37.991Z,3.60
2018-10-06T17:12:06.486Z,3.20
2018-10-06T17:14:35.018Z,3.83
2018-10-06T17:17:03.890Z,4.50
2018-10-06T17:19:32.625Z,5.15
2018-10-06T17:22:01.354Z,4.80
2018-10-06T17:24:29.988Z,4.40
2018-10-06T17:26:58.429Z,4.85
2018-10-06T17:29:27.701Z,5.72
2018-10-06T17:31:56.581Z,4.67
2018-10-06T17:34:25.145Z,9.68
2018-10-06T17:36:53.944Z,5.50
2018-10-06T17:39:23.158Z,6.22
2018-10-06T17:41:52.464Z,7.00
2018-10-06T17:44:21.327Z,7.33
2018-10-06T17:46:49.986Z,6.40
2018-10-06T17:49:18.460Z,5.83
2018-10-06T17:51:47.215Z,5.85
2018-10-06T17:54:16.353Z,5.60
2018-10-06T17:56:45.274Z,5.58
2018-10-06T17:59:13.811Z,5.17
2018-10-06T18:01:42.982Z,5.70
2018-10-06T18:04:12.142Z,5.37
2018-10-06T18:06:40.664Z,5.33
2018-10-06T18:09:09.499Z,5.92
2018-10-06T18:11:38.202Z,5.90
2018-10-06T18:14:07.002Z,5.90
2018-10-06T18:16:35.674Z,5.50
2018-10-06T18:19:04.373Z,5.70
2018-10-06T18:21:33.187Z,5.37
2018-10-06T18:24:01.811Z,5.22
2018-10-06T18:26:31.207Z,5.50
2018-10-06T18:28:59.746Z,5.90
2018-10-06T18:31:28.396Z,6.90
2018-10-06T18:33:57.742Z,6.25
2018-10-06T18:36:26.364Z,5.65
2018-10-06T18:38:55.019Z,5.90
2018-10-06T18:41:23.516Z,5.92
2018-10-06T18:43:52.172Z,6.55
2018-10-06T18:46:20.967Z,5.95
2018-10-06T18:48:49.543Z,6.67
2018-10-06T18:51:18.777Z,5.47
2018-10-06T18:53:48.211Z,6.30
2018-10-06T18:56:17.853Z,6.33
2018-10-06T18:58:46.931Z,6.75
2018-10-06T19:01:15.444Z,6.47
2018-10-06T19:03:44.335Z,5.83
2018-10-06T19:06:12.689Z,6.42
2018-10-06T19:08:41.449Z,6.30
2018-10-06T19:11:09.900Z,6.70
2018-10-06T19:13:38.438Z,6.67
2018-10-06T19:16:07.008Z,5.97
2018-10-06T19:18:35.847Z,5.67
2018-10-06T19:21:04.501Z,6.07
2018-10-06T19:23:33.890Z,6.85
2018-10-06T19:26:02.607Z,6.43
2018-10-06T19:28:31.399Z,6.20
2018-10-06T19:31:00.296Z,6.47
2018-10-06T19:33:29.081Z,6.37
2018-10-06T19:35:57.792Z,6.70
2018-10-06T19:38:27.406Z,6.65
2018-10-06T19:40:59.025Z,6.97
2018-10-06T19:43:27.661Z,6.67
2018-10-06T19:45:56.412Z,6.90
2018-10-06T19:48:24.929Z,7.33
2018-10-06T19:50:53.774Z,7.12
2018-10-06T19:53:22.602Z,7.03
2018-10-06T19:55:51.351Z,6.45
2018-10-06T19:58:20.907Z,6.00
2018-10-06T20:00:49.588Z,6.53
2018-10-06T20:03:18.339Z,6.55
2018-10-06T20:05:46.994Z,6.63
2018-10-06T20:08:15.501Z,6.30
2018-10-06T20:10:43.978Z,6.30
2018-10-06T20:13:12.708Z,6.08
2018-10-06T20:15:41.437Z,6.37
2018-10-06T20:18:10.361Z,6.33
2018-10-06T20:20:39.383Z,6.30
2018-10-06T20:23:08.049Z,6.70
2018-10-06T20:25:36.681Z,6.22
2018-10-06T20:28:05.258Z,6.33
2018-10-06T20:30:33.826Z,6.47
2018-10-06T20:33:02.382Z,6.33
2018-10-06T20:35:31.288Z,7.30
2018-10-06T20:37:59.923Z,7.12
2018-10-06T20:40:28.476Z,7.63
2018-10-06T20:42:57.167Z,8.57
2018-10-06T20:45:25.826Z,8.75
2018-10-06T20:47:54.306Z,8.30
2018-10-06T20:50:23.051Z,8.63
2018-10-06T20:52:52.035Z,8.47
2018-10-06T20:55:20.837Z,7.95
2018-10-06T20:57:49.421Z,8.55
2018-10-06T21:00:18.630Z,9.33
2018-10-06T21:02:47.456Z,9.08
2018-10-06T21:05:16.105Z,8.80
2018-10-06T21:07:45.765Z,9.33
2018-10-06T21:10:14.245Z,9.70
2018-10-06T21:12:42.789Z,10.50
2018-10-06T21:15:12.518Z,11.90
2018-10-06T21:17:41.275Z,11.57
2018-10-06T21:20:10.487Z,12.78
2018-10-06T21:22:38.966Z,13.37
2018-10-06T21:25:07.595Z,14.00
2018-10-06T21:27:36.767Z,15.70
2018-10-06T21:30:05.676Z,16.07
2018-10-06T21:32:34.373Z,17.12
2018-10-06T21:35:02.901Z,17.80
2018-10-06T21:37:31.429Z,16.77
2018-10-06T21:40:00.024Z,17.60
2018-10-06T21:42:28.682Z,17.70
2018-10-06T21:44:57.275Z,19.37
2018-10-06T21:47:25.802Z,21.30
2018-10-06T21:49:54.323Z,21.00
2018-10-06T21:52:23.206Z,20.93
2018-10-06T21:54:51.785Z,21.37
2018-10-06T21:57:21.147Z,20.73
2018-10-06T21:59:49.777Z,21.60
2018-10-06T22:02:18.375Z,22.80
2018-10-06T22:04:47.194Z,23.30
2018-10-06T22:07:15.784Z,25.77
2018-10-06T22:09:44.436Z,22.80
2018-10-06T22:12:13.263Z,22.80
2018-10-06T22:14:41.905Z,21.93
2018-10-06T22:17:10.516Z,24.93
2018-10-06T22:19:39.065Z,25.37
2018-10-06T22:22:07.617Z,28.00
2018-10-06T22:24:36.364Z,28.07
2018-10-06T22:27:04.912Z,30.30
2018-10-06T22:29:34.314Z,32.23
2018-10-06T22:32:02.987Z,32.03
2018-10-06T22:34:31.614Z,31.23
2018-10-06T22:37:00.150Z,32.00
2018-10-06T22:39:28.740Z,31.70
2018-10-06T22:41:57.445Z,31.83
2018-10-06T22:44:25.955Z,30.07
2018-10-06T22:46:54.458Z,33.33
2018-10-06T22:49:23.228Z,30.70
2018-10-06T22:51:51.981Z,31.40
2018-10-06T22:54:20.559Z,34.03
2018-10-06T22:56:49.219Z,34.97
2018-10-06T22:59:17.847Z,36.30
2018-10-06T23:01:47.638Z,36.73
2018-10-06T23:04:16.484Z,34.33
2018-10-06T23:06:45.198Z,36.50
2018-10-06T23:09:13.901Z,34.97
2018-10-06T23:11:42.839Z,32.63
2018-10-06T23:14:11.322Z,36.53
2018-10-06T23:16:40.244Z,38.10
2018-10-06T23:19:09.457Z,34.03
2018-10-06T23:21:38.641Z,36.87
2018-10-06T23:24:07.453Z,38.07
2018-10-06T23:26:36.052Z,37.83
2018-10-06T23:29:04.614Z,36.50
2018-10-06T23:31:33.085Z,40.37
2018-10-06T23:34:02.366Z,36.43
2018-10-06T23:36:30.942Z,40.70
2018-10-06T23:38:59.418Z,40.00
2018-10-06T23:41:27.964Z,37.93
2018-10-06T23:43:56.468Z,40.17
2018-10-06T23:46:24.986Z,40.87
2018-10-06T23:48:53.509Z,40.37
2018-10-06T23:51:22.010Z,42.63
2018-10-06T23:53:50.481Z,42.30
2018-10-06T23:56:19.277Z,42.00
2018-10-06T23:58:47.941Z,42.53
